createdAt,value
2022-11-09T00:00:06.773Z,6.07
2022-11-09T00:02:33.193Z,7.25
2022-11-09T00:04:59.616Z,7.32
2022-11-09T00:07:26.044Z,6.80
2022-11-09T00:09:52.565Z,6.60
2022-11-09T00:12:19.030Z,8.63
2022-11-09T00:14:45.441Z,6.60
2022-11-09T00:17:11.902Z,6.80
2022-11-09T00:19:38.353Z,6.20
2022-11-09T00:22:04.820Z,7.00
2022-11-09T00:24:31.281Z,7.40
2022-11-09T00:26:57.693Z,7.10
2022-11-09T00:29:24.101Z,6.32
2022-11-09T00:31:50.535Z,6.68
2022-11-09T00:34:16.959Z,5.85
2022-11-09T00:36:43.454Z,5.65
2022-11-09T00:39:09.888Z,6.03
2022-11-09T00:41:36.505Z,7.43
2022-11-09T00:44:02.954Z,5.63
2022-11-09T00:46:29.710Z,5.78
2022-11-09T00:48:56.298Z,6.13
2022-11-09T00:51:22.705Z,7.32
2022-11-09T00:53:49.202Z,6.60
2022-11-09T00:56:15.674Z,5.28
2022-11-09T00:58:42.157Z,6.50
2022-11-09T01:01:11.386Z,7.80
2022-11-09T01:03:38.465Z,6.70
2022-11-09T01:06:05.802Z,6.88
2022-11-09T01:08:33.157Z,7.10
2022-11-09T01:11:05.410Z,7.80
2022-11-09T01:13:32.177Z,6.32
2022-11-09T01:15:58.690Z,6.32
2022-11-09T01:18:25.108Z,7.63
2022-11-09T01:20:51.680Z,9.23
2022-11-09T01:23:19.071Z,6.10
2022-11-09T01:25:46.129Z,7.90
2022-11-09T01:28:13.130Z,8.63
2022-11-09T01:30:42.447Z,7.00
2022-11-09T01:33:10.856Z,5.80
2022-11-09T01:35:38.880Z,5.60
2022-11-09T01:38:07.114Z,5.63
2022-11-09T01:40:35.810Z,8.18
2022-11-09T01:43:21.223Z,7.47
2022-11-09T01:46:03.782Z,7.43
2022-11-09T01:48:36.158Z,7.00
2022-11-09T01:51:09.495Z,6.40
2022-11-09T01:53:42.011Z,5.97
2022-11-09T01:56:10.516Z,7.00
2022-11-09T01:58:54.480Z,5.82
2022-11-09T02:01:21.442Z,8.07
2022-11-09T02:03:59.483Z,7.35
2022-11-09T02:06:28.943Z,8.20
2022-11-09T02:09:04.518Z,7.45
2022-11-09T02:11:30.950Z,5.00
2022-11-09T02:14:00.698Z,5.85
2022-11-09T02:16:27.946Z,6.50
2022-11-09T02:18:56.953Z,6.00
2022-11-09T02:21:25.694Z,7.45
2022-11-09T02:23:52.757Z,6.68
2022-11-09T02:26:31.239Z,8.48
2022-11-09T02:28:59.669Z,7.30
2022-11-09T02:31:30.998Z,5.30
2022-11-09T02:34:08.348Z,5.53
2022-11-09T02:36:34.849Z,7.05
2022-11-09T02:39:02.265Z,5.93
2022-11-09T02:41:31.645Z,8.57
2022-11-09T02:43:59.316Z,6.72
2022-11-09T02:46:31.396Z,5.50
2022-11-09T02:48:58.265Z,6.90
2022-11-09T02:51:24.700Z,5.63
2022-11-09T02:53:51.204Z,6.35
2022-11-09T02:56:17.616Z,6.97
2022-11-09T02:58:44.086Z,7.13
2022-11-09T03:01:10.789Z,7.82
2022-11-09T03:03:37.273Z,6.97
2022-11-09T03:06:04.108Z,5.90
2022-11-09T03:08:30.519Z,6.10
2022-11-09T03:10:59.320Z,8.10
2022-11-09T03:13:25.787Z,7.40
2022-11-09T03:15:52.196Z,6.40
2022-11-09T03:18:18.694Z,6.13
2022-11-09T03:20:45.111Z,5.40
2022-11-09T03:23:11.530Z,5.88
2022-11-09T03:25:37.930Z,6.07
2022-11-09T03:28:06.849Z,5.82
2022-11-09T03:30:33.659Z,6.55
2022-11-09T03:33:09.806Z,6.03
2022-11-09T03:35:39.297Z,5.15
2022-11-09T03:38:06.331Z,7.90
2022-11-09T03:40:32.861Z,6.95
2022-11-09T03:42:59.264Z,6.30
2022-11-09T03:45:27.775Z,5.60
2022-11-09T03:48:00.537Z,5.25
2022-11-09T03:50:28.715Z,6.40
2022-11-09T03:52:56.124Z,5.53
2022-11-09T03:55:22.521Z,5.95
2022-11-09T03:57:49.241Z,6.40
2022-11-09T04:00:18.196Z,5.32
2022-11-09T04:02:44.731Z,6.32
2022-11-09T04:05:11.511Z,6.75
2022-11-09T04:07:38.507Z,6.80
2022-11-09T04:10:06.531Z,7.97
2022-11-09T04:12:32.924Z,6.20
2022-11-09T04:14:59.345Z,5.30
2022-11-09T04:17:25.795Z,5.20
2022-11-09T04:19:52.222Z,7.43
2022-11-09T04:22:18.698Z,8.05
2022-11-09T04:24:45.137Z,7.07
2022-11-09T04:27:11.606Z,7.50
2022-11-09T04:29:38.065Z,7.15
2022-11-09T04:32:04.543Z,8.23
2022-11-09T04:34:31.105Z,6.38
2022-11-09T04:36:57.529Z,8.27
2022-11-09T04:39:24.097Z,8.60
2022-11-09T04:41:50.535Z,7.35
2022-11-09T04:44:16.947Z,7.28
2022-11-09T04:46:43.434Z,7.30
2022-11-09T04:49:09.861Z,6.70
2022-11-09T04:51:36.329Z,7.13
2022-11-09T04:54:02.902Z,6.20
2022-11-09T04:56:29.347Z,6.00
2022-11-09T04:58:55.784Z,7.78
2022-11-09T05:01:23.466Z,5.82
2022-11-09T05:03:49.940Z,6.40
2022-11-09T05:06:34.729Z,8.00
2022-11-09T05:09:06.708Z,6.25
2022-11-09T05:11:34.454Z,6.45
2022-11-09T05:14:01.255Z,5.40
2022-11-09T05:16:31.329Z,5.78
2022-11-09T05:18:57.769Z,5.85
2022-11-09T05:21:24.174Z,5.95
2022-11-09T05:23:59.576Z,6.15
2022-11-09T05:26:34.254Z,8.40
2022-11-09T05:29:03.574Z,7.85
2022-11-09T05:31:30.708Z,6.57
2022-11-09T05:33:57.345Z,6.68
2022-11-09T05:36:23.855Z,9.05
2022-11-09T05:38:50.297Z,8.30
2022-11-09T05:41:17.273Z,6.88
2022-11-09T05:43:47.883Z,6.85
2022-11-09T05:46:15.574Z,5.85
2022-11-09T05:48:43.170Z,9.20
2022-11-09T05:51:11.931Z,7.20
2022-11-09T05:53:41.143Z,9.45
2022-11-09T05:56:12.926Z,6.53
2022-11-09T05:58:39.392Z,5.78
2022-11-09T06:01:07.778Z,6.32
2022-11-09T06:03:34.192Z,7.95
2022-11-09T06:06:07.768Z,6.43
2022-11-09T06:08:34.972Z,10.77
2022-11-09T06:11:06.583Z,8.55
2022-11-09T06:13:33.512Z,7.18
2022-11-09T06:16:01.651Z,8.82
2022-11-09T06:18:29.927Z,6.80
2022-11-09T06:20:58.815Z,6.50
2022-11-09T06:23:26.015Z,6.88
2022-11-09T06:25:53.564Z,7.95
2022-11-09T06:28:20.628Z,7.45
2022-11-09T06:30:47.073Z,6.20
2022-11-09T06:33:13.505Z,6.00
2022-11-09T06:35:40.166Z,8.10
2022-11-09T06:38:06.753Z,5.88
2022-11-09T06:40:33.633Z,7.10
2022-11-09T06:43:00.973Z,11.00
2022-11-09T06:45:29.188Z,7.80
2022-11-09T06:48:00.412Z,6.80
2022-11-09T06:50:28.247Z,7.70
2022-11-09T06:52:59.309Z,7.90
2022-11-09T06:55:28.104Z,8.15
2022-11-09T06:57:55.188Z,7.82
2022-11-09T07:00:22.718Z,8.07
2022-11-09T07:02:49.463Z,7.50
2022-11-09T07:05:15.932Z,7.95
2022-11-09T07:07:42.570Z,7.35
2022-11-09T07:10:09.797Z,7.80
2022-11-09T07:12:36.330Z,9.45
2022-11-09T07:15:04.215Z,8.93
2022-11-09T07:17:31.677Z,8.43
2022-11-09T07:19:58.318Z,7.25
2022-11-09T07:22:24.894Z,8.20
2022-11-09T07:24:51.294Z,7.18
2022-11-09T07:27:17.718Z,8.82
2022-11-09T07:29:44.192Z,8.82
2022-11-09T07:32:10.592Z,10.65
2022-11-09T07:34:37.038Z,10.40
2022-11-09T07:37:03.465Z,8.77
2022-11-09T07:39:30.177Z,7.97
2022-11-09T07:41:56.655Z,7.63
2022-11-09T07:44:23.092Z,12.60
2022-11-09T07:46:49.772Z,8.63
2022-11-09T07:49:17.188Z,7.07
2022-11-09T07:51:43.911Z,7.32
2022-11-09T07:54:10.647Z,9.30
2022-11-09T07:56:37.770Z,8.68
2022-11-09T07:59:04.866Z,10.65
2022-11-09T08:01:31.810Z,8.38
2022-11-09T08:03:58.258Z,9.90
2022-11-09T08:06:28.027Z,6.93
2022-11-09T08:08:55.536Z,10.65
2022-11-09T08:11:22.393Z,8.10
2022-11-09T08:13:48.807Z,9.52
2022-11-09T08:16:15.228Z,7.85
2022-11-09T08:18:41.733Z,9.15
2022-11-09T08:21:08.378Z,7.05
2022-11-09T08:23:34.973Z,9.23
2022-11-09T08:26:05.626Z,7.03
2022-11-09T08:28:32.947Z,7.47
2022-11-09T08:31:02.504Z,8.27
2022-11-09T08:33:31.159Z,9.40
2022-11-09T08:35:57.577Z,6.80
2022-11-09T08:38:24.210Z,7.70
2022-11-09T08:40:56.821Z,7.28
2022-11-09T08:43:23.270Z,6.53
2022-11-09T08:45:49.701Z,8.57
2022-11-09T08:48:16.129Z,7.20
2022-11-09T08:50:42.580Z,12.38
2022-11-09T08:53:09.327Z,9.48
2022-11-09T08:55:35.986Z,8.80
2022-11-09T08:58:03.854Z,9.80
2022-11-09T09:00:30.571Z,6.97
2022-11-09T09:02:57.165Z,8.93
2022-11-09T09:05:23.821Z,6.88
2022-11-09T09:07:50.427Z,6.55
2022-11-09T09:10:16.872Z,9.15
2022-11-09T09:12:43.498Z,7.80
2022-11-09T09:15:10.082Z,7.00
2022-11-09T09:17:36.527Z,8.27
2022-11-09T09:20:04.151Z,9.57
2022-11-09T09:22:30.827Z,7.20
2022-11-09T09:24:57.527Z,7.75
2022-11-09T09:27:23.991Z,9.40
2022-11-09T09:29:50.450Z,11.10
2022-11-09T09:32:16.845Z,7.85
2022-11-09T09:34:43.274Z,8.43
2022-11-09T09:37:11.128Z,8.63
2022-11-09T09:39:37.548Z,10.57
2022-11-09T09:42:37.568Z,7.00
2022-11-09T09:45:15.734Z,8.73
2022-11-09T09:47:45.738Z,12.30
2022-11-09T09:50:38.044Z,7.82
2022-11-09T09:53:24.332Z,8.30
2022-11-09T09:56:14.104Z,7.70
2022-11-09T09:58:47.611Z,7.53
2022-11-09T10:01:22.908Z,6.65
2022-11-09T10:03:49.522Z,8.82
2022-11-09T10:06:41.389Z,7.10
2022-11-09T10:09:21.708Z,6.75
2022-11-09T10:12:17.020Z,6.07
2022-11-09T10:15:10.195Z,8.07
2022-11-09T10:17:48.622Z,6.40
2022-11-09T10:20:52.981Z,6.82
2022-11-09T10:23:48.052Z,7.00
2022-11-09T10:26:19.289Z,7.80
2022-11-09T10:31:41.144Z,6.88
2022-11-09T10:34:28.592Z,7.68
2022-11-09T10:37:04.340Z,6.22
2022-11-09T10:39:42.204Z,7.05
2022-11-09T10:42:11.314Z,7.90
2022-11-09T10:44:37.823Z,8.48
2022-11-09T10:47:13.602Z,6.93
2022-11-09T10:49:40.832Z,5.82
2022-11-09T10:52:29.762Z,5.93
2022-11-09T10:55:17.097Z,6.53
2022-11-09T10:57:56.368Z,6.75
2022-11-09T11:00:22.826Z,7.50
2022-11-09T11:02:50.411Z,6.95
2022-11-09T11:05:16.746Z,7.57
2022-11-09T11:07:44.039Z,6.10
2022-11-09T11:10:16.406Z,7.22
2022-11-09T11:12:44.459Z,5.13
2022-11-09T11:15:35.239Z,6.78
2022-11-09T11:18:15.083Z,6.63
2022-11-09T11:20:41.508Z,6.38
2022-11-09T11:23:13.206Z,7.10
2022-11-09T11:26:00.846Z,5.90
2022-11-09T11:28:38.290Z,6.07
2022-11-09T11:33:34.445Z,5.47
2022-11-09T11:36:18.139Z,6.45
2022-11-09T11:39:03.218Z,8.93
2022-11-09T11:41:48.374Z,6.93
2022-11-09T11:44:30.218Z,5.88
2022-11-09T11:47:12.686Z,6.43
2022-11-09T11:49:55.623Z,5.72
2022-11-09T11:52:48.505Z,5.07
2022-11-09T11:55:29.806Z,5.65
2022-11-09T11:58:23.677Z,4.72
2022-11-09T12:01:04.997Z,6.43
2022-11-09T12:03:39.976Z,5.38
2022-11-09T12:06:17.528Z,5.15
2022-11-09T12:08:54.363Z,6.03
2022-11-09T12:11:26.481Z,4.88
2022-11-09T12:13:52.828Z,5.40
2022-11-09T12:16:40.360Z,6.80
2022-11-09T12:19:35.953Z,5.72
2022-11-09T12:22:08.980Z,5.97
2022-11-09T12:24:57.344Z,4.63
2022-11-09T12:27:38.400Z,6.25
2022-11-09T12:30:16.193Z,5.57
2022-11-09T12:32:52.200Z,5.88
2022-11-09T12:35:35.915Z,5.38
2022-11-09T12:38:10.506Z,4.40
2022-11-09T12:40:48.168Z,5.97
2022-11-09T12:43:23.825Z,5.50
2022-11-09T12:45:53.015Z,4.60
2022-11-09T12:48:26.648Z,4.72
2022-11-09T12:50:53.750Z,3.97
2022-11-09T12:53:24.107Z,6.25
2022-11-09T12:56:02.095Z,4.85
2022-11-09T12:58:32.457Z,4.30
2022-11-09T13:01:29.708Z,3.95
2022-11-09T13:03:58.331Z,5.03
2022-11-09T13:06:29.849Z,4.85
2022-11-09T13:09:05.848Z,5.97
2022-11-09T13:11:41.144Z,5.32
2022-11-09T13:14:22.661Z,6.80
2022-11-09T13:16:57.069Z,5.28
2022-11-09T13:19:46.236Z,4.00
2022-11-09T13:22:15.882Z,5.45
2022-11-09T13:24:59.689Z,5.45
2022-11-09T13:27:39.032Z,4.55
2022-11-09T13:30:28.494Z,5.03
2022-11-09T13:33:18.703Z,5.18
2022-11-09T13:35:45.278Z,4.10
2022-11-09T13:38:16.211Z,6.22
2022-11-09T13:40:45.095Z,5.95
2022-11-09T13:43:11.529Z,4.50
2022-11-09T13:46:01.430Z,4.60
2022-11-09T13:51:33.175Z,5.85
2022-11-09T13:54:47.113Z,9.23
2022-11-09T13:57:13.744Z,5.35
2022-11-09T13:59:47.094Z,5.10
2022-11-09T14:02:24.873Z,5.10
2022-11-09T14:04:51.326Z,5.45
2022-11-09T14:07:27.953Z,6.07
2022-11-09T14:10:10.317Z,7.47
2022-11-09T14:13:10.859Z,5.35
2022-11-09T14:15:48.340Z,5.03
2022-11-09T14:21:18.359Z,5.13
2022-11-09T14:23:44.903Z,4.72
2022-11-09T14:26:22.916Z,5.03
2022-11-09T14:28:49.465Z,7.25
2022-11-09T14:31:27.117Z,5.80
2022-11-09T14:34:02.051Z,5.28
2022-11-09T14:36:31.537Z,5.30
2022-11-09T14:39:01.230Z,5.07
2022-11-09T14:41:28.262Z,5.65
2022-11-09T14:43:57.886Z,5.00
2022-11-09T14:46:29.835Z,5.40
2022-11-09T14:48:59.490Z,6.43
2022-11-09T14:51:33.331Z,10.80
2022-11-09T14:54:01.129Z,7.53
2022-11-09T14:56:29.643Z,5.75
2022-11-09T14:58:57.038Z,5.10
2022-11-09T15:01:26.447Z,6.80
2022-11-09T15:04:16.755Z,5.82
2022-11-09T15:06:51.613Z,5.30
2022-11-09T15:09:21.302Z,6.30
2022-11-09T15:11:48.813Z,6.10
2022-11-09T15:14:35.736Z,6.30
2022-11-09T15:17:16.437Z,7.03
2022-11-09T15:19:53.225Z,5.20
2022-11-09T15:22:52.474Z,7.00
2022-11-09T15:25:33.960Z,5.10
2022-11-09T15:28:09.423Z,6.13
2022-11-09T15:30:43.147Z,5.45
2022-11-09T15:33:17.993Z,4.75
2022-11-09T15:35:57.062Z,5.47
2022-11-09T15:38:43.430Z,5.07
2022-11-09T15:41:17.332Z,7.70
2022-11-09T15:43:44.292Z,7.43
2022-11-09T15:46:13.998Z,7.22
2022-11-09T15:48:45.563Z,5.63
2022-11-09T15:51:13.562Z,6.25
2022-11-09T15:53:40.111Z,5.43
2022-11-09T15:56:06.705Z,7.80
2022-11-09T15:58:33.139Z,9.60
2022-11-09T16:00:59.761Z,6.05
2022-11-09T16:03:26.408Z,6.13
2022-11-09T16:05:52.845Z,6.80
2022-11-09T16:08:19.931Z,7.30
2022-11-09T16:10:46.648Z,6.40
2022-11-09T16:13:13.050Z,6.38
2022-11-09T16:15:39.811Z,7.03
2022-11-09T16:18:06.391Z,10.77
2022-11-09T16:20:32.806Z,7.85
2022-11-09T16:22:59.327Z,6.55
2022-11-09T16:25:25.933Z,5.72
2022-11-09T16:27:53.417Z,8.38
2022-11-09T16:30:20.745Z,5.10
2022-11-09T16:32:47.284Z,10.27
2022-11-09T16:35:29.289Z,7.72
2022-11-09T16:37:58.174Z,5.47
2022-11-09T16:40:24.786Z,7.88
2022-11-09T16:42:51.875Z,7.13
2022-11-09T16:45:19.420Z,6.78
2022-11-09T16:47:49.153Z,5.80
2022-11-09T16:50:15.797Z,6.82
2022-11-09T16:52:42.937Z,6.88
2022-11-09T16:55:10.302Z,7.68
2022-11-09T16:57:37.245Z,8.23
2022-11-09T17:00:07.582Z,6.72
2022-11-09T17:02:34.914Z,8.90
2022-11-09T17:05:01.484Z,7.75
2022-11-09T17:07:28.668Z,6.85
2022-11-09T17:09:55.357Z,7.55
2022-11-09T17:12:21.817Z,8.77
2022-11-09T17:14:48.320Z,6.07
2022-11-09T17:17:21.207Z,8.65
2022-11-09T17:19:49.127Z,7.38
2022-11-09T17:22:15.834Z,9.25
2022-11-09T17:24:42.415Z,8.63
2022-11-09T17:27:10.165Z,7.53
2022-11-09T17:29:38.364Z,12.73
2022-11-09T17:32:07.089Z,7.75
2022-11-09T17:34:33.736Z,11.57
2022-11-09T17:37:05.156Z,14.30
2022-11-09T17:39:32.301Z,16.40
2022-11-09T17:41:58.748Z,17.63
2022-11-09T17:44:25.260Z,17.30
2022-11-09T17:46:51.949Z,19.55
2022-11-09T17:49:18.377Z,24.60
2022-11-09T17:51:45.861Z,25.08
2022-11-09T17:54:12.427Z,30.38
2022-11-09T17:56:39.548Z,23.42
2022-11-09T17:59:06.210Z,16.17
2022-11-09T18:01:40.834Z,9.30
2022-11-09T18:04:11.203Z,12.23
2022-11-09T18:06:38.545Z,15.07
2022-11-09T18:11:52.529Z,8.65
2022-11-09T18:14:19.350Z,9.57
2022-11-09T18:16:45.818Z,7.65
2022-11-09T18:19:12.602Z,6.18
2022-11-09T18:21:41.656Z,9.80
2022-11-09T18:24:08.579Z,6.82
2022-11-09T18:26:35.042Z,6.82
2022-11-09T18:29:01.494Z,7.88
2022-11-09T18:31:28.068Z,6.15
2022-11-09T18:33:54.535Z,4.85
2022-11-09T18:36:21.660Z,7.43
2022-11-09T18:38:51.080Z,5.70
2022-11-09T18:41:22.493Z,7.43
2022-11-09T18:43:50.901Z,5.60
2022-11-09T18:46:19.113Z,5.72
2022-11-09T18:48:45.866Z,6.82
2022-11-09T18:51:12.445Z,8.90
2022-11-09T18:53:44.201Z,11.93
2022-11-09T18:56:18.542Z,9.45
2022-11-09T18:58:46.072Z,4.80
2022-11-09T19:01:12.703Z,13.68
2022-11-09T19:03:39.190Z,16.90
2022-11-09T19:06:07.303Z,9.57
2022-11-09T19:08:52.319Z,7.88
2022-11-09T19:11:19.094Z,7.57
2022-11-09T19:13:45.579Z,6.10
2022-11-09T19:16:13.808Z,8.65
2022-11-09T19:18:40.681Z,6.63
2022-11-09T19:21:17.906Z,7.70
2022-11-09T19:23:44.314Z,4.05
2022-11-09T19:26:10.781Z,6.65
2022-11-09T19:28:37.225Z,4.70
2022-11-09T19:31:04.346Z,5.75
2022-11-09T19:33:31.089Z,7.03
2022-11-09T19:36:28.227Z,6.45
2022-11-09T19:38:45.125Z,5.35
2022-11-09T19:41:11.821Z,8.02
2022-11-09T19:43:38.520Z,7.43
2022-11-09T19:46:09.306Z,8.15
2022-11-09T19:48:37.115Z,9.32
2022-11-09T19:51:08.514Z,10.32
2022-11-09T19:53:41.038Z,10.68
2022-11-09T19:56:39.597Z,9.27
2022-11-09T19:59:08.942Z,9.32
2022-11-09T20:01:38.454Z,9.60
2022-11-09T20:04:10.098Z,12.30
2022-11-09T20:06:38.504Z,9.43
2022-11-09T20:09:05.794Z,9.55
2022-11-09T20:11:50.869Z,9.50
2022-11-09T20:14:18.293Z,9.75
2022-11-09T20:16:46.811Z,8.63
2022-11-09T20:19:14.218Z,8.48
2022-11-09T20:21:41.199Z,8.52
2022-11-09T20:24:08.560Z,10.73
2022-11-09T20:26:35.113Z,10.80
2022-11-09T20:29:03.710Z,8.25
2022-11-09T20:31:30.247Z,6.55
2022-11-09T20:33:56.686Z,7.55
2022-11-09T20:36:23.364Z,8.48
2022-11-09T20:38:49.959Z,8.05
2022-11-09T20:41:16.447Z,9.20
2022-11-09T20:43:43.073Z,9.68
2022-11-09T20:46:19.882Z,8.75
2022-11-09T20:48:54.034Z,11.18
2022-11-09T20:51:22.036Z,7.60
2022-11-09T20:53:50.604Z,6.25
2022-11-09T20:56:18.080Z,8.93
2022-11-09T20:58:44.625Z,6.93
2022-11-09T21:01:13.317Z,7.93
2022-11-09T21:03:39.790Z,8.15
2022-11-09T21:06:07.566Z,6.63
2022-11-09T21:08:34.519Z,7.32
2022-11-09T21:11:02.355Z,10.27
2022-11-09T21:13:28.899Z,6.15
2022-11-09T21:15:55.347Z,7.85
2022-11-09T21:18:22.199Z,12.10
2022-11-09T21:20:48.904Z,12.30
2022-11-09T21:23:15.297Z,13.57
2022-11-09T21:26:01.740Z,13.02
2022-11-09T21:28:47.642Z,14.50
2022-11-09T21:31:14.332Z,17.70
2022-11-09T21:33:40.829Z,14.27
2022-11-09T21:36:08.977Z,11.80
2022-11-09T21:38:36.871Z,9.65
2022-11-09T21:41:23.786Z,11.27
2022-11-09T21:43:54.446Z,9.45
2022-11-09T21:46:22.424Z,11.35
2022-11-09T21:48:48.922Z,8.63
2022-11-09T21:51:15.340Z,9.80
2022-11-09T21:53:41.812Z,7.88
2022-11-09T21:56:08.871Z,9.65
2022-11-09T21:58:35.290Z,8.30
2022-11-09T22:01:06.724Z,13.85
2022-11-09T22:06:00.370Z,7.25
2022-11-09T22:08:27.201Z,7.25
2022-11-09T22:11:02.385Z,8.18
2022-11-09T22:13:47.158Z,8.70
2022-11-09T22:16:13.591Z,9.52
2022-11-09T22:18:58.387Z,13.43
2022-11-09T22:21:24.830Z,8.32
2022-11-09T22:23:51.398Z,9.73
2022-11-09T22:26:18.171Z,7.60
2022-11-09T22:28:44.720Z,7.97
2022-11-09T22:31:11.802Z,11.07
2022-11-09T22:33:38.224Z,7.15
2022-11-09T22:36:07.004Z,9.98
2022-11-09T22:38:34.511Z,7.43
2022-11-09T22:41:06.637Z,8.43
2022-11-09T22:43:37.937Z,9.50
2022-11-09T22:46:09.008Z,8.27
2022-11-09T22:48:36.257Z,8.63
2022-11-09T22:51:03.657Z,9.80
2022-11-09T22:53:30.539Z,11.65
2022-11-09T22:55:59.247Z,11.18
2022-11-09T22:58:26.411Z,14.05
2022-11-09T23:00:53.090Z,7.88
2022-11-09T23:03:20.275Z,7.63
2022-11-09T23:05:50.329Z,7.13
2022-11-09T23:08:16.763Z,8.98
2022-11-09T23:10:43.189Z,5.80
2022-11-09T23:13:09.732Z,9.18
2022-11-09T23:15:36.222Z,7.10
2022-11-09T23:18:21.145Z,7.60
2022-11-09T23:20:47.996Z,8.88
2022-11-09T23:23:14.415Z,8.13
2022-11-09T23:25:56.532Z,10.68
2022-11-09T23:28:24.410Z,6.38
2022-11-09T23:30:50.879Z,5.20
2022-11-09T23:33:17.297Z,5.68
2022-11-09T23:35:43.931Z,7.65
2022-11-09T23:38:11.594Z,5.57
2022-11-09T23:40:38.050Z,7.40
2022-11-09T23:43:11.042Z,6.63
2022-11-09T23:45:40.150Z,6.40
2022-11-09T23:48:07.767Z,7.78
2022-11-09T23:50:34.239Z,7.00
2022-11-09T23:53:00.705Z,6.25
2022-11-09T23:55:28.015Z,7.63
2022-11-09T23:57:54.759Z,10.10
